sensor_id;sensor_type;location;lat;lon;timestamp;pressure;altitude;pressure_sealevel;temperature;humidity
63663;BME280;49815;51.618;0.336;2023-01-29T00:01:35;102282.37;;;5.82;42.51
63663;BME280;49815;51.618;0.336;2023-01-29T00:04:01;102281.19;;;6.47;42.24
63663;BME280;49815;51.618;0.336;2023-01-29T00:06:26;102281.03;;;6.58;42.43
63663;BME280;49815;51.618;0.336;2023-01-29T00:08:52;102279.92;;;6.92;42.54
63663;BME280;49815;51.618;0.336;2023-01-29T00:11:17;102277.32;;;6.83;42.33
63663;BME280;49815;51.618;0.336;2023-01-29T00:13:43;102274.74;;;6.64;42.67
63663;BME280;49815;51.618;0.336;2023-01-29T00:16:09;102269.14;;;6.51;42.80
63663;BME280;49815;51.618;0.336;2023-01-29T00:18:37;102268.75;;;6.61;42.88
63663;BME280;49815;51.618;0.336;2023-01-29T00:20:59;102273.18;;;6.58;42.48
63663;BME280;49815;51.618;0.336;2023-01-29T00:23:25;102275.31;;;6.63;42.82
63663;BME280;49815;51.618;0.336;2023-01-29T00:25:50;102277.90;;;6.59;42.63
63663;BME280;49815;51.618;0.336;2023-01-29T00:28:18;102281.11;;;6.36;42.49
63663;BME280;49815;51.618;0.336;2023-01-29T00:30:44;102278.97;;;6.89;42.77
63663;BME280;49815;51.618;0.336;2023-01-29T00:33:10;102276.53;;;6.62;42.74
63663;BME280;49815;51.618;0.336;2023-01-29T00:35:35;102274.41;;;6.40;42.95
63663;BME280;49815;51.618;0.336;2023-01-29T00:37:59;102276.87;;;6.16;42.47
63663;BME280;49815;51.618;0.336;2023-01-29T00:40:25;102277.42;;;6.46;42.66
63663;BME280;49815;51.618;0.336;2023-01-29T00:42:50;102283.26;;;6.33;42.46
63663;BME280;49815;51.618;0.336;2023-01-29T00:45:16;102283.86;;;6.72;42.96
63663;BME280;49815;51.618;0.336;2023-01-29T00:47:41;102283.70;;;6.45;42.28
63663;BME280;49815;51.618;0.336;2023-01-29T00:50:10;102285.38;;;6.75;42.69
63663;BME280;49815;51.618;0.336;2023-01-29T00:52:32;102289.50;;;6.71;42.91
63663;BME280;49815;51.618;0.336;2023-01-29T00:54:59;102290.80;;;6.49;42.81
63663;BME280;49815;51.618;0.336;2023-01-29T00:57:25;102287.81;;;6.67;43.30
63663;BME280;49815;51.618;0.336;2023-01-29T00:59:48;102280.22;;;6.90;43.29
63663;BME280;49815;51.618;0.336;2023-01-29T01:02:13;102278.23;;;6.32;42.87
63663;BME280;49815;51.618;0.336;2023-01-29T01:04:39;102274.57;;;6.87;43.00
63663;BME280;49815;51.618;0.336;2023-01-29T01:07:03;102277.38;;;6.88;42.93
63663;BME280;49815;51.618;0.336;2023-01-29T01:09:29;102274.10;;;6.79;42.72
63663;BME280;49815;51.618;0.336;2023-01-29T01:11:54;102269.94;;;6.53;43.23
63663;BME280;49815;51.618;0.336;2023-01-29T01:14:20;102263.01;;;6.81;43.07
63663;BME280;49815;51.618;0.336;2023-01-29T01:16:45;102252.59;;;6.44;43.18
63663;BME280;49815;51.618;0.336;2023-01-29T01:19:11;102253.74;;;6.60;42.83
63663;BME280;49815;51.618;0.336;2023-01-29T01:21:36;102255.18;;;6.66;42.89
63663;BME280;49815;51.618;0.336;2023-01-29T01:24:02;102252.14;;;6.31;43.16
63663;BME280;49815;51.618;0.336;2023-01-29T01:26:27;102249.20;;;6.49;42.91
63663;BME280;49815;51.618;0.336;2023-01-29T01:28:52;102243.41;;;6.62;42.97
63663;BME280;49815;51.618;0.336;2023-01-29T01:31:18;102240.31;;;6.62;43.01
63663;BME280;49815;51.618;0.336;2023-01-29T01:33:43;102236.68;;;6.27;43.09
63663;BME280;49815;51.618;0.336;2023-01-29T01:36:09;102236.75;;;6.74;43.36
63663;BME280;49815;51.618;0.336;2023-01-29T01:38:36;102232.00;;;6.66;43.16
63663;BME280;49815;51.618;0.336;2023-01-29T01:41:00;102229.34;;;6.18;43.43
63663;BME280;49815;51.618;0.336;2023-01-29T01:43:26;102220.03;;;6.34;43.56
63663;BME280;49815;51.618;0.336;2023-01-29T01:45:51;102214.72;;;6.30;43.25
63663;BME280;49815;51.618;0.336;2023-01-29T01:48:19;102224.07;;;6.24;43.33
63663;BME280;49815;51.618;0.336;2023-01-29T01:50:45;102226.90;;;6.66;43.42
63663;BME280;49815;51.618;0.336;2023-01-29T01:53:10;102236.61;;;6.54;43.67
63663;BME280;49815;51.618;0.336;2023-01-29T01:55:35;102244.84;;;6.60;43.81
63663;BME280;49815;51.618;0.336;2023-01-29T01:58:03;102240.59;;;6.33;43.78
63663;BME280;49815;51.618;0.336;2023-01-29T02:00:25;102237.18;;;6.45;43.41
63663;BME280;49815;51.618;0.336;2023-01-29T02:02:50;102240.21;;;6.83;43.43
63663;BME280;49815;51.618;0.336;2023-01-29T02:05:15;102239.77;;;6.51;43.80
63663;BME280;49815;51.618;0.336;2023-01-29T02:07:42;102244.62;;;6.04;43.98
63663;BME280;49815;51.618;0.336;2023-01-29T02:10:10;102245.87;;;6.35;43.87
63663;BME280;49815;51.618;0.336;2023-01-29T02:12:32;102239.86;;;6.32;43.86
63663;BME280;49815;51.618;0.336;2023-01-29T02:14:57;102237.72;;;6.48;44.14
63663;BME280;49815;51.618;0.336;2023-01-29T02:17:23;102235.40;;;6.59;43.82
63663;BME280;49815;51.618;0.336;2023-01-29T02:19:56;102234.56;;;6.69;43.78
63663;BME280;49815;51.618;0.336;2023-01-29T02:22:25;102234.95;;;6.39;43.82
63663;BME280;49815;51.618;0.336;2023-01-29T02:27:08;102230.53;;;6.60;44.00
63663;BME280;49815;51.618;0.336;2023-01-29T02:29:35;102228.31;;;6.20;44.16
63663;BME280;49815;51.618;0.336;2023-01-29T02:32:05;102227.56;;;6.37;44.38
63663;BME280;49815;51.618;0.336;2023-01-29T02:34:27;102225.03;;;6.15;44.43
63663;BME280;49815;51.618;0.336;2023-01-29T02:36:50;102229.19;;;6.26;44.67
63663;BME280;49815;51.618;0.336;2023-01-29T02:39:16;102233.70;;;6.14;44.82
63663;BME280;49815;51.618;0.336;2023-01-29T02:41:41;102236.12;;;6.63;44.38
63663;BME280;49815;51.618;0.336;2023-01-29T02:44:10;102236.64;;;6.55;44.39
63663;BME280;49815;51.618;0.336;2023-01-29T02:46:33;102238.18;;;5.93;44.74
63663;BME280;49815;51.618;0.336;2023-01-29T02:48:57;102237.45;;;6.61;44.61
63663;BME280;49815;51.618;0.336;2023-01-29T02:51:23;102234.79;;;6.09;44.71
63663;BME280;49815;51.618;0.336;2023-01-29T02:53:52;102240.01;;;6.21;44.80
63663;BME280;49815;51.618;0.336;2023-01-29T02:56:15;102238.83;;;6.33;44.81
63663;BME280;49815;51.618;0.336;2023-01-29T02:58:40;102236.44;;;6.83;44.61
63663;BME280;49815;51.618;0.336;2023-01-29T03:01:08;102232.57;;;6.16;44.88
63663;BME280;49815;51.618;0.336;2023-01-29T03:03:30;102231.89;;;6.22;45.29
63663;BME280;49815;51.618;0.336;2023-01-29T03:05:55;102232.69;;;6.61;45.39
63663;BME280;49815;51.618;0.336;2023-01-29T03:08:23;102230.61;;;6.44;45.63
63663;BME280;49815;51.618;0.336;2023-01-29T03:10:48;102231.97;;;6.29;45.48
63663;BME280;49815;51.618;0.336;2023-01-29T03:13:13;102227.89;;;6.36;45.63
63663;BME280;49815;51.618;0.336;2023-01-29T03:15:39;102224.27;;;6.39;45.51
63663;BME280;49815;51.618;0.336;2023-01-29T03:18:06;102216.75;;;6.16;45.91
63663;BME280;49815;51.618;0.336;2023-01-29T03:20:31;102217.51;;;6.54;45.98
63663;BME280;49815;51.618;0.336;2023-01-29T03:22:55;102217.18;;;6.49;45.96
63663;BME280;49815;51.618;0.336;2023-01-29T03:25:17;102215.19;;;6.51;45.93
63663;BME280;49815;51.618;0.336;2023-01-29T03:27:43;102212.80;;;6.30;45.96
63663;BME280;49815;51.618;0.336;2023-01-29T03:30:09;102213.26;;;6.74;46.23
63663;BME280;49815;51.618;0.336;2023-01-29T03:32:32;102211.85;;;6.04;46.16
63663;BME280;49815;51.618;0.336;2023-01-29T03:34:59;102204.31;;;6.29;45.91
63663;BME280;49815;51.618;0.336;2023-01-29T03:37:26;102199.74;;;6.26;45.74
63663;BME280;49815;51.618;0.336;2023-01-29T03:39:48;102196.00;;;6.45;45.90
63663;BME280;49815;51.618;0.336;2023-01-29T03:42:19;102194.12;;;6.70;45.90
63663;BME280;49815;51.618;0.336;2023-01-29T03:44:46;102194.92;;;6.62;45.82
63663;BME280;49815;51.618;0.336;2023-01-29T03:47:12;102190.59;;;6.55;45.95
63663;BME280;49815;51.618;0.336;2023-01-29T03:49:35;102189.05;;;6.79;45.96
63663;BME280;49815;51.618;0.336;2023-01-29T03:52:00;102185.64;;;6.52;46.25
63663;BME280;49815;51.618;0.336;2023-01-29T03:54:26;102183.81;;;6.60;46.10
63663;BME280;49815;51.618;0.336;2023-01-29T03:56:55;102183.76;;;6.55;46.02
63663;BME280;49815;51.618;0.336;2023-01-29T03:59:19;102182.75;;;6.56;46.31
63663;BME280;49815;51.618;0.336;2023-01-29T04:01:41;102181.66;;;6.82;46.36
63663;BME280;49815;51.618;0.336;2023-01-29T04:04:07;102181.25;;;6.86;46.40
63663;BME280;49815;51.618;0.336;2023-01-29T04:06:31;102178.37;;;6.44;46.36
63663;BME280;49815;51.618;0.336;2023-01-29T04:08:57;102175.63;;;6.96;46.36
63663;BME280;49815;51.618;0.336;2023-01-29T04:11:21;102174.53;;;6.81;46.57
63663;BME280;49815;51.618;0.336;2023-01-29T04:13:45;102171.76;;;6.53;46.61
63663;BME280;49815;51.618;0.336;2023-01-29T04:16:15;102169.87;;;6.32;46.60
63663;BME280;49815;51.618;0.336;2023-01-29T04:18:36;102170.94;;;6.88;46.45
63663;BME280;49815;51.618;0.336;2023-01-29T04:21:01;102171.10;;;6.52;46.78
63663;BME280;49815;51.618;0.336;2023-01-29T04:23:27;102169.26;;;6.57;46.86
63663;BME280;49815;51.618;0.336;2023-01-29T04:26:01;102170.28;;;6.98;46.94
63663;BME280;49815;51.618;0.336;2023-01-29T04:28:19;102171.24;;;6.49;46.78
63663;BME280;49815;51.618;0.336;2023-01-29T04:30:48;102170.62;;;6.68;47.15
63663;BME280;49815;51.618;0.336;2023-01-29T04:33:17;102168.78;;;6.72;47.12
63663;BME280;49815;51.618;0.336;2023-01-29T04:35:42;102168.05;;;6.50;46.87
63663;BME280;49815;51.618;0.336;2023-01-29T04:38:07;102162.68;;;6.29;46.94
63663;BME280;49815;51.618;0.336;2023-01-29T04:40:30;102162.39;;;6.60;46.83
63663;BME280;49815;51.618;0.336;2023-01-29T04:42:59;102158.35;;;7.06;46.83
63663;BME280;49815;51.618;0.336;2023-01-29T04:45:23;102156.00;;;6.85;46.88
63663;BME280;49815;51.618;0.336;2023-01-29T04:47:48;102152.88;;;6.82;46.79
63663;BME280;49815;51.618;0.336;2023-01-29T04:50:13;102149.82;;;6.77;46.81
63663;BME280;49815;51.618;0.336;2023-01-29T04:52:40;102152.69;;;6.95;46.54
63663;BME280;49815;51.618;0.336;2023-01-29T04:55:03;102153.58;;;6.38;46.75
63663;BME280;49815;51.618;0.336;2023-01-29T04:57:27;102150.31;;;6.66;46.97
63663;BME280;49815;51.618;0.336;2023-01-29T04:59:55;102147.08;;;6.64;47.09
63663;BME280;49815;51.618;0.336;2023-01-29T05:02:16;102148.86;;;6.53;47.44
63663;BME280;49815;51.618;0.336;2023-01-29T05:04:42;102144.74;;;6.61;47.30
63663;BME280;49815;51.618;0.336;2023-01-29T05:07:09;102144.58;;;6.46;47.59
63663;BME280;49815;51.618;0.336;2023-01-29T05:09:33;102136.32;;;6.51;47.48
63663;BME280;49815;51.618;0.336;2023-01-29T05:11:59;102132.82;;;6.51;47.53
63663;BME280;49815;51.618;0.336;2023-01-29T05:14:24;102130.65;;;6.60;47.62
63663;BME280;49815;51.618;0.336;2023-01-29T05:16:51;102126.80;;;6.50;47.55
63663;BME280;49815;51.618;0.336;2023-01-29T05:19:15;102119.43;;;6.39;47.59
63663;BME280;49815;51.618;0.336;2023-01-29T05:21:42;102112.07;;;6.65;47.41
63663;BME280;49815;51.618;0.336;2023-01-29T05:24:07;102107.57;;;6.45;47.45
63663;BME280;49815;51.618;0.336;2023-01-29T05:26:30;102107.48;;;6.56;47.44
63663;BME280;49815;51.618;0.336;2023-01-29T05:28:56;102104.94;;;6.26;47.44
63663;BME280;49815;51.618;0.336;2023-01-29T05:31:22;102099.35;;;6.43;47.42
63663;BME280;49815;51.618;0.336;2023-01-29T05:33:47;102097.36;;;6.54;47.74
63663;BME280;49815;51.618;0.336;2023-01-29T05:36:12;102098.43;;;6.68;47.47
63663;BME280;49815;51.618;0.336;2023-01-29T05:38:37;102097.69;;;6.47;47.67
63663;BME280;49815;51.618;0.336;2023-01-29T05:41:02;102094.30;;;6.64;47.50
63663;BME280;49815;51.618;0.336;2023-01-29T05:43:27;102092.43;;;5.96;47.57
63663;BME280;49815;51.618;0.336;2023-01-29T05:45:55;102091.00;;;6.68;47.58
63663;BME280;49815;51.618;0.336;2023-01-29T05:48:19;102084.73;;;5.86;47.94
63663;BME280;49815;51.618;0.336;2023-01-29T05:50:44;102083.04;;;6.25;47.75
63663;BME280;49815;51.618;0.336;2023-01-29T05:53:10;102081.85;;;6.42;47.75
63663;BME280;49815;51.618;0.336;2023-01-29T05:55:35;102081.54;;;6.61;47.97
63663;BME280;49815;51.618;0.336;2023-01-29T05:58:00;102082.18;;;6.38;48.05
63663;BME280;49815;51.618;0.336;2023-01-29T06:00:25;102080.80;;;6.32;47.46
63663;BME280;49815;51.618;0.336;2023-01-29T06:02:50;102078.25;;;6.48;47.61
63663;BME280;49815;51.618;0.336;2023-01-29T06:05:16;102077.25;;;6.44;47.76
63663;BME280;49815;51.618;0.336;2023-01-29T06:07:41;102074.44;;;6.42;48.15
63663;BME280;49815;51.618;0.336;2023-01-29T06:10:07;102066.63;;;6.51;47.89
63663;BME280;49815;51.618;0.336;2023-01-29T06:12:32;102066.42;;;6.48;47.82
63663;BME280;49815;51.618;0.336;2023-01-29T06:14:58;102065.99;;;6.62;47.48
63663;BME280;49815;51.618;0.336;2023-01-29T06:17:23;102063.83;;;6.53;47.47
63663;BME280;49815;51.618;0.336;2023-01-29T06:19:48;102064.82;;;6.44;47.65
63663;BME280;49815;51.618;0.336;2023-01-29T06:22:14;102066.67;;;6.10;47.60
63663;BME280;49815;51.618;0.336;2023-01-29T06:24:40;102061.28;;;6.43;47.65
63663;BME280;49815;51.618;0.336;2023-01-29T06:27:05;102065.89;;;6.43;47.67
63663;BME280;49815;51.618;0.336;2023-01-29T06:29:30;102069.84;;;5.91;48.11
63663;BME280;49815;51.618;0.336;2023-01-29T06:31:56;102071.92;;;6.10;47.93
63663;BME280;49815;51.618;0.336;2023-01-29T06:34:21;102066.32;;;6.07;48.27
63663;BME280;49815;51.618;0.336;2023-01-29T06:36:47;102063.52;;;6.19;48.21
63663;BME280;49815;51.618;0.336;2023-01-29T06:39:13;102065.33;;;6.29;48.07
63663;BME280;49815;51.618;0.336;2023-01-29T06:41:39;102068.14;;;6.45;47.70
63663;BME280;49815;51.618;0.336;2023-01-29T06:44:04;102069.41;;;6.35;47.78
63663;BME280;49815;51.618;0.336;2023-01-29T06:46:30;102068.63;;;6.15;48.20
63663;BME280;49815;51.618;0.336;2023-01-29T06:48:57;102066.40;;;5.85;48.30
63663;BME280;49815;51.618;0.336;2023-01-29T06:51:20;102065.11;;;6.13;48.33
63663;BME280;49815;51.618;0.336;2023-01-29T06:53:46;102063.87;;;5.96;48.17
63663;BME280;49815;51.618;0.336;2023-01-29T06:56:11;102059.04;;;6.06;47.94
63663;BME280;49815;51.618;0.336;2023-01-29T06:58:37;102061.99;;;6.29;48.13
63663;BME280;49815;51.618;0.336;2023-01-29T07:01:04;102056.09;;;6.42;47.76
63663;BME280;49815;51.618;0.336;2023-01-29T07:03:28;102052.37;;;6.25;47.94
63663;BME280;49815;51.618;0.336;2023-01-29T07:05:53;102044.74;;;6.48;48.40
63663;BME280;49815;51.618;0.336;2023-01-29T07:08:19;102044.82;;;6.32;48.60
63663;BME280;49815;51.618;0.336;2023-01-29T07:10:44;102040.60;;;5.76;48.70
63663;BME280;49815;51.618;0.336;2023-01-29T07:13:10;102045.26;;;5.93;49.02
63663;BME280;49815;51.618;0.336;2023-01-29T07:15:35;102041.71;;;5.98;49.20
63663;BME280;49815;51.618;0.336;2023-01-29T07:18:03;102041.99;;;5.95;49.11
63663;BME280;49815;51.618;0.336;2023-01-29T07:20:27;102039.15;;;5.60;49.23
63663;BME280;49815;51.618;0.336;2023-01-29T07:22:51;102043.60;;;5.33;49.93
63663;BME280;49815;51.618;0.336;2023-01-29T07:25:17;102053.42;;;5.58;49.82
63663;BME280;49815;51.618;0.336;2023-01-29T07:27:42;102048.08;;;5.75;49.24
63663;BME280;49815;51.618;0.336;2023-01-29T07:30:10;102042.30;;;5.88;49.25
63663;BME280;49815;51.618;0.336;2023-01-29T07:32:33;102044.72;;;5.44;49.18
63663;BME280;49815;51.618;0.336;2023-01-29T07:34:59;102039.15;;;5.50;49.20
63663;BME280;49815;51.618;0.336;2023-01-29T07:37:25;102039.64;;;5.98;48.51
63663;BME280;49815;51.618;0.336;2023-01-29T07:39:50;102040.46;;;5.79;48.66
63663;BME280;49815;51.618;0.336;2023-01-29T07:42:15;102041.65;;;5.79;48.45
63663;BME280;49815;51.618;0.336;2023-01-29T07:44:41;102031.71;;;5.61;48.53
63663;BME280;49815;51.618;0.336;2023-01-29T07:47:06;102026.60;;;5.64;49.09
63663;BME280;49815;51.618;0.336;2023-01-29T07:49:31;102027.24;;;5.36;49.49
63663;BME280;49815;51.618;0.336;2023-01-29T07:51:58;102028.29;;;5.38;49.48
63663;BME280;49815;51.618;0.336;2023-01-29T07:54:22;102034.62;;;5.26;49.77
63663;BME280;49815;51.618;0.336;2023-01-29T07:56:47;102033.64;;;5.55;49.14
63663;BME280;49815;51.618;0.336;2023-01-29T07:59:13;102025.70;;;5.36;49.44
63663;BME280;49815;51.618;0.336;2023-01-29T08:01:38;102027.21;;;5.35;49.36
63663;BME280;49815;51.618;0.336;2023-01-29T08:04:04;102021.52;;;5.55;49.04
63663;BME280;49815;51.618;0.336;2023-01-29T08:06:28;102022.63;;;5.31;49.00
63663;BME280;49815;51.618;0.336;2023-01-29T08:08:55;102020.66;;;5.47;49.29
63663;BME280;49815;51.618;0.336;2023-01-29T08:11:19;102024.87;;;5.40;49.32
63663;BME280;49815;51.618;0.336;2023-01-29T08:13:45;102020.74;;;5.30;49.54
63663;BME280;49815;51.618;0.336;2023-01-29T08:16:11;102017.21;;;5.51;49.02
63663;BME280;49815;51.618;0.336;2023-01-29T08:18:36;102014.57;;;5.39;48.73
63663;BME280;49815;51.618;0.336;2023-01-29T08:21:01;102011.81;;;5.52;48.82
63663;BME280;49815;51.618;0.336;2023-01-29T08:23:27;102014.56;;;5.23;48.45
63663;BME280;49815;51.618;0.336;2023-01-29T08:25:52;102012.00;;;6.28;47.57
63663;BME280;49815;51.618;0.336;2023-01-29T08:28:17;102010.48;;;6.11;47.73
63663;BME280;49815;51.618;0.336;2023-01-29T08:30:43;102008.75;;;5.92;47.50
63663;BME280;49815;51.618;0.336;2023-01-29T08:33:09;102005.19;;;6.53;47.26
63663;BME280;49815;51.618;0.336;2023-01-29T08:35:34;102002.86;;;6.35;46.69
63663;BME280;49815;51.618;0.336;2023-01-29T08:38:01;102006.22;;;6.70;46.41
63663;BME280;49815;51.618;0.336;2023-01-29T08:40:27;102002.99;;;6.61;46.89
63663;BME280;49815;51.618;0.336;2023-01-29T08:42:50;102004.52;;;6.76;46.95
63663;BME280;49815;51.618;0.336;2023-01-29T08:45:16;102002.09;;;6.23;47.62
63663;BME280;49815;51.618;0.336;2023-01-29T08:47:45;102000.20;;;6.54;47.19
63663;BME280;49815;51.618;0.336;2023-01-29T08:50:07;102000.95;;;6.34;46.67
63663;BME280;49815;51.618;0.336;2023-01-29T08:52:31;102002.62;;;6.55;46.85
63663;BME280;49815;51.618;0.336;2023-01-29T08:54:57;101999.14;;;5.98;47.11
63663;BME280;49815;51.618;0.336;2023-01-29T08:57:23;101995.63;;;6.16;47.44
63663;BME280;49815;51.618;0.336;2023-01-29T08:59:48;102003.77;;;6.62;47.19
63663;BME280;49815;51.618;0.336;2023-01-29T09:02:14;102006.73;;;6.51;46.87
63663;BME280;49815;51.618;0.336;2023-01-29T09:04:40;102007.18;;;6.72;46.46
63663;BME280;49815;51.618;0.336;2023-01-29T09:07:05;102006.24;;;6.77;46.38
63663;BME280;49815;51.618;0.336;2023-01-29T09:09:30;101997.14;;;6.53;46.04
63663;BME280;49815;51.618;0.336;2023-01-29T09:11:56;102000.82;;;6.67;46.08
63663;BME280;49815;51.618;0.336;2023-01-29T09:14:21;101999.41;;;6.96;45.97
63663;BME280;49815;51.618;0.336;2023-01-29T09:16:47;102003.91;;;6.82;46.22
63663;BME280;49815;51.618;0.336;2023-01-29T09:19:12;102002.04;;;6.75;45.69
63663;BME280;49815;51.618;0.336;2023-01-29T09:21:38;102007.63;;;7.08;45.93
63663;BME280;49815;51.618;0.336;2023-01-29T09:24:05;102011.39;;;6.71;46.90
63663;BME280;49815;51.618;0.336;2023-01-29T09:26:29;102008.91;;;6.80;46.67
63663;BME280;49815;51.618;0.336;2023-01-29T09:28:55;102011.41;;;7.11;46.85
63663;BME280;49815;51.618;0.336;2023-01-29T09:31:20;102008.85;;;7.36;46.49
63663;BME280;49815;51.618;0.336;2023-01-29T09:33:45;102000.93;;;7.16;46.40
63663;BME280;49815;51.618;0.336;2023-01-29T09:36:11;102006.62;;;7.14;46.00
63663;BME280;49815;51.618;0.336;2023-01-29T09:38:36;101999.95;;;7.39;45.55
63663;BME280;49815;51.618;0.336;2023-01-29T09:41:10;102001.32;;;7.69;45.07
63663;BME280;49815;51.618;0.336;2023-01-29T09:43:37;102000.65;;;7.37;45.19
63663;BME280;49815;51.618;0.336;2023-01-29T09:45:54;102000.48;;;7.58;45.17
63663;BME280;49815;51.618;0.336;2023-01-29T09:48:19;102000.03;;;8.09;44.81
63663;BME280;49815;51.618;0.336;2023-01-29T09:50:46;102002.33;;;7.56;44.91
63663;BME280;49815;51.618;0.336;2023-01-29T09:53:17;102001.97;;;8.01;45.28
63663;BME280;49815;51.618;0.336;2023-01-29T09:55:39;102008.02;;;7.62;45.75
63663;BME280;49815;51.618;0.336;2023-01-29T09:58:04;102008.45;;;7.09;45.75
63663;BME280;49815;51.618;0.336;2023-01-29T10:00:31;102002.60;;;7.43;46.02
63663;BME280;49815;51.618;0.336;2023-01-29T10:03:05;102000.45;;;7.21;45.81
63663;BME280;49815;51.618;0.336;2023-01-29T10:05:24;102000.76;;;7.46;46.34
63663;BME280;49815;51.618;0.336;2023-01-29T10:08:04;102003.45;;;7.22;46.36
63663;BME280;49815;51.618;0.336;2023-01-29T10:10:20;102003.08;;;7.14;47.00
63663;BME280;49815;51.618;0.336;2023-01-29T10:12:45;102004.24;;;7.11;46.81
63663;BME280;49815;51.618;0.336;2023-01-29T10:15:01;101998.56;;;7.02;47.15
63663;BME280;49815;51.618;0.336;2023-01-29T10:17:34;101999.41;;;7.53;46.91
63663;BME280;49815;51.618;0.336;2023-01-29T10:20:01;101995.92;;;7.33;46.65
63663;BME280;49815;51.618;0.336;2023-01-29T10:22:26;102000.13;;;7.30;46.49
63663;BME280;49815;51.618;0.336;2023-01-29T10:24:44;101993.53;;;7.37;46.58
63663;BME280;49815;51.618;0.336;2023-01-29T10:27:11;101999.34;;;7.10;46.74
63663;BME280;49815;51.618;0.336;2023-01-29T10:29:30;101993.51;;;7.05;47.29
63663;BME280;49815;51.618;0.336;2023-01-29T10:31:57;101995.20;;;6.99;47.86
63663;BME280;49815;51.618;0.336;2023-01-29T10:34:26;101990.00;;;7.32;46.84
63663;BME280;49815;51.618;0.336;2023-01-29T10:36:48;101986.15;;;7.79;46.62
63663;BME280;49815;51.618;0.336;2023-01-29T10:39:16;101978.93;;;7.31;46.73
63663;BME280;49815;51.618;0.336;2023-01-29T10:41:47;101977.35;;;8.00;46.27
63663;BME280;49815;51.618;0.336;2023-01-29T10:44:15;101975.39;;;8.53;45.46
63663;BME280;49815;51.618;0.336;2023-01-29T10:46:39;101964.51;;;8.51;45.02
63663;BME280;49815;51.618;0.336;2023-01-29T10:49:05;101962.04;;;8.80;44.49
63663;BME280;49815;51.618;0.336;2023-01-29T10:51:32;101957.70;;;8.60;45.24
63663;BME280;49815;51.618;0.336;2023-01-29T10:53:52;101956.80;;;8.19;45.18
63663;BME280;49815;51.618;0.336;2023-01-29T10:56:20;101955.04;;;8.36;45.25
63663;BME280;49815;51.618;0.336;2023-01-29T10:58:38;101946.51;;;8.52;45.13
63663;BME280;49815;51.618;0.336;2023-01-29T11:01:00;101940.95;;;8.94;44.61
63663;BME280;49815;51.618;0.336;2023-01-29T11:03:27;101942.95;;;9.08;44.88
63663;BME280;49815;51.618;0.336;2023-01-29T11:05:56;101937.13;;;9.01;44.82
63663;BME280;49815;51.618;0.336;2023-01-29T11:08:18;101935.43;;;8.88;44.79
63663;BME280;49815;51.618;0.336;2023-01-29T11:10:48;101924.12;;;8.92;44.59
63663;BME280;49815;51.618;0.336;2023-01-29T11:13:12;101919.14;;;9.11;44.73
63663;BME280;49815;51.618;0.336;2023-01-29T11:15:32;101919.82;;;8.82;45.50
63663;BME280;49815;51.618;0.336;2023-01-29T11:18:04;101917.84;;;8.22;46.43
63663;BME280;49815;51.618;0.336;2023-01-29T11:20:26;101907.68;;;8.56;46.41
63663;BME280;49815;51.618;0.336;2023-01-29T11:22:53;101901.36;;;8.74;46.73
63663;BME280;49815;51.618;0.336;2023-01-29T11:25:16;101901.87;;;8.16;47.89
63663;BME280;49815;51.618;0.336;2023-01-29T11:27:43;101897.37;;;8.36;48.51
63663;BME280;49815;51.618;0.336;2023-01-29T11:30:09;101889.11;;;8.59;47.78
63663;BME280;49815;51.618;0.336;2023-01-29T11:32:33;101880.78;;;8.42;47.81
63663;BME280;49815;51.618;0.336;2023-01-29T11:34:57;101876.48;;;9.01;46.77
63663;BME280;49815;51.618;0.336;2023-01-29T11:37:21;101871.74;;;8.69;46.65
63663;BME280;49815;51.618;0.336;2023-01-29T11:39:46;101861.66;;;8.48;47.45
63663;BME280;49815;51.618;0.336;2023-01-29T11:42:19;101856.28;;;8.53;47.11
63663;BME280;49815;51.618;0.336;2023-01-29T11:44:41;101856.09;;;8.64;47.19
63663;BME280;49815;51.618;0.336;2023-01-29T11:47:14;101849.80;;;9.03;46.87
63663;BME280;49815;51.618;0.336;2023-01-29T11:49:31;101849.43;;;8.52;46.94
63663;BME280;49815;51.618;0.336;2023-01-29T11:51:53;101846.81;;;8.35;47.80
63663;BME280;49815;51.618;0.336;2023-01-29T11:54:18;101844.41;;;8.38;47.97
63663;BME280;49815;51.618;0.336;2023-01-29T11:56:44;101839.17;;;8.20;48.16
63663;BME280;49815;51.618;0.336;2023-01-29T12:01:36;101829.04;;;8.40;47.69
63663;BME280;49815;51.618;0.336;2023-01-29T12:04:00;101825.92;;;8.32;48.12
63663;BME280;49815;51.618;0.336;2023-01-29T12:06:32;101825.15;;;8.82;47.59
63663;BME280;49815;51.618;0.336;2023-01-29T12:08:55;101813.53;;;8.87;47.27
63663;BME280;49815;51.618;0.336;2023-01-29T12:11:23;101814.32;;;8.97;47.10
63663;BME280;49815;51.618;0.336;2023-01-29T12:13:42;101813.44;;;9.21;46.77
63663;BME280;49815;51.618;0.336;2023-01-29T12:16:16;101810.49;;;9.05;47.41
63663;BME280;49815;51.618;0.336;2023-01-29T12:18:35;101800.07;;;8.66;47.35
63663;BME280;49815;51.618;0.336;2023-01-29T12:21:01;101800.32;;;8.66;46.69
63663;BME280;49815;51.618;0.336;2023-01-29T12:23:32;101798.44;;;8.97;47.34
63663;BME280;49815;51.618;0.336;2023-01-29T12:25:55;101795.89;;;8.96;47.43
63663;BME280;49815;51.618;0.336;2023-01-29T12:28:27;101786.00;;;8.84;47.66
63663;BME280;49815;51.618;0.336;2023-01-29T12:30:45;101783.63;;;8.63;47.70
63663;BME280;49815;51.618;0.336;2023-01-29T12:33:11;101780.28;;;8.43;47.75
63663;BME280;49815;51.618;0.336;2023-01-29T12:35:34;101778.03;;;8.57;48.51
63663;BME280;49815;51.618;0.336;2023-01-29T12:37:59;101774.85;;;8.36;48.82
63663;BME280;49815;51.618;0.336;2023-01-29T12:40:23;101766.12;;;8.17;49.16
63663;BME280;49815;51.618;0.336;2023-01-29T12:42:48;101765.52;;;8.61;49.27
63663;BME280;49815;51.618;0.336;2023-01-29T12:45:17;101757.12;;;7.85;48.95
63663;BME280;49815;51.618;0.336;2023-01-29T12:47:41;101752.97;;;8.48;48.47
63663;BME280;49815;51.618;0.336;2023-01-29T12:50:06;101742.94;;;8.37;48.17
63663;BME280;49815;51.618;0.336;2023-01-29T12:52:39;101739.44;;;8.54;48.44
63663;BME280;49815;51.618;0.336;2023-01-29T12:54:58;101731.58;;;8.68;47.95